Time;durP1;ratioP1;P1;durP2;ratioP2;P2;SDS_P1;SDS_P2;PMS_P1;PMS_P2;Temp;Humidity;BMP_temperature;BMP_pressure;BME280_temperature;BME280_humidity;BME280_pressure;Samples;Min_cycle;Max_cycle;Signal;HPM_P1;HPM_P2
2024/03/13 00:02:03;;;;;;;8.10;6.33;;;;;;;10.93;62.72;97403.97;5043450;28;20583;-71
2024/03/13 00:04:40;;;;;;;9.20;5.20;;;;;;;10.83;63.14;97392.75;5035418;28;20215;-69
2024/03/13 00:07:10;;;;;;;9.43;5.47;;;;;;;10.83;62.87;97396.19;5034892;28;20183;-68
2024/03/13 00:09:43;;;;;;;7.37;4.73;;;;;;;10.81;62.75;97385.03;5035854;28;20442;-71
2024/03/13 00:12:11;;;;;;;4.67;4.27;;;;;;;10.60;63.04;97382.69;5042554;28;20438;-72
2024/03/13 00:14:37;;;;;;;5.73;4.60;;;;;;;10.62;63.31;97383.38;5034396;28;20509;-70
2024/03/13 00:17:04;;;;;;;5.83;4.30;;;;;;;10.57;63.31;97383.81;5037495;28;20430;-70
2024/03/13 00:19:29;;;;;;;5.47;4.03;;;;;;;10.53;63.54;97377.22;5030253;28;21000;-70
2024/03/13 00:21:55;;;;;;;5.10;4.43;;;;;;;10.49;63.71;97381.09;5035709;28;20421;-68
2024/03/13 00:24:21;;;;;;;6.83;4.10;;;;;;;10.50;64.25;97377.50;5035338;28;20186;-69
2024/03/13 00:26:50;;;;;;;5.60;4.37;;;;;;;10.58;63.40;97382.84;5035348;28;20180;-71
2024/03/13 00:29:17;;;;;;;4.67;3.60;;;;;;;10.64;63.31;97370.09;5030134;28;20203;-71
2024/03/13 00:31:44;;;;;;;5.60;4.20;;;;;;;10.67;63.43;97375.06;5030540;28;20515;-69
2024/03/13 00:34:10;;;;;;;5.10;4.00;;;;;;;10.67;63.70;97367.19;5036988;28;20422;-71
2024/03/13 00:36:37;;;;;;;5.00;3.80;;;;;;;10.70;63.35;97359.03;5036586;28;20437;-71
2024/03/13 00:39:03;;;;;;;4.37;3.43;;;;;;;10.67;63.33;97356.72;5031223;28;20211;-69
2024/03/13 00:41:28;;;;;;;3.70;2.93;;;;;;;10.67;63.30;97348.84;5030529;28;20426;-71
2024/03/13 00:43:54;;;;;;;4.53;3.57;;;;;;;10.43;63.65;97345.81;5030391;28;20462;-69
2024/03/13 00:46:19;;;;;;;3.80;3.40;;;;;;;10.39;64.06;97348.88;5030002;28;20607;-67
2024/03/13 00:48:45;;;;;;;3.63;3.30;;;;;;;10.51;63.87;97337.22;5030439;28;20206;-71
2024/03/13 00:51:10;;;;;;;4.20;3.13;;;;;;;10.18;64.29;97330.78;5021919;28;20267;-70
2024/03/13 00:53:38;;;;;;;4.47;3.10;;;;;;;10.28;64.08;97327.16;5030470;28;20183;-71
2024/03/13 00:56:04;;;;;;;3.33;3.03;;;;;;;10.32;64.22;97332.09;5021855;28;20192;-71
2024/03/13 00:58:30;;;;;;;3.17;2.87;;;;;;;10.23;64.63;97331.97;5045978;28;20500;-70
2024/03/13 01:00:55;;;;;;;2.90;2.60;;;;;;;10.38;64.46;97336.75;5028221;28;20483;-70
2024/03/13 01:03:22;;;;;;;2.93;2.50;;;;;;;10.39;64.30;97327.94;5029287;28;20292;-71
2024/03/13 01:05:48;;;;;;;3.60;2.90;;;;;;;10.37;64.28;97327.22;5024659;28;20203;-71
2024/03/13 01:08:16;;;;;;;4.33;2.57;;;;;;;10.34;64.26;97330.13;5029425;28;20423;-69
2024/03/13 01:10:42;;;;;;;3.70;2.30;;;;;;;10.27;64.32;97327.31;5037378;28;20430;-70
2024/03/13 01:13:08;;;;;;;2.70;2.43;;;;;;;10.36;64.29;97338.66;5039277;28;20769;-69
2024/03/13 01:15:34;;;;;;;4.43;2.33;;;;;;;10.26;64.21;97333.50;5033222;28;20237;-70
2024/03/13 01:17:59;;;;;;;2.80;2.60;;;;;;;10.29;64.38;97323.56;5032381;28;20175;-71
2024/03/13 01:20:25;;;;;;;2.40;2.20;;;;;;;10.22;64.44;97327.72;5029980;28;20457;-70
2024/03/13 01:22:51;;;;;;;3.07;2.37;;;;;;;10.28;64.67;97336.78;5029632;28;20199;-71
2024/03/13 01:25:19;;;;;;;2.67;2.47;;;;;;;10.28;64.34;97337.63;5040070;28;21046;-71
2024/03/13 01:27:46;;;;;;;3.63;2.37;;;;;;;10.26;64.28;97342.19;5029626;28;20222;-70
2024/03/13 01:30:14;;;;;;;2.90;2.43;;;;;;;10.20;64.25;97340.16;5029250;28;20442;-70
2024/03/13 01:32:39;;;;;;;2.77;1.67;;;;;;;10.26;64.26;97339.56;5029442;28;20425;-71
2024/03/13 01:35:06;;;;;;;5.17;2.13;;;;;;;10.28;64.07;97337.63;5042988;28;20513;-70
2024/03/13 01:40:25;;;;;;;1.43;1.33;;;;;;;10.18;64.20;97326.38;5035292;28;20959;-70
2024/03/13 01:56:58;;;;;;;1.40;1.30;;;;;;;10.54;63.81;97330.84;5028286;28;20866;-69
2024/03/13 01:59:38;;;;;;;2.03;1.83;;;;;;;10.62;63.93;97340.59;5040143;28;20452;-70
2024/03/13 02:02:24;;;;;;;2.20;1.73;;;;;;;10.66;64.28;97340.13;5035071;28;20509;-69
2024/03/13 02:04:50;;;;;;;1.53;1.30;;;;;;;10.73;64.14;97332.50;5030668;28;20457;-70
2024/03/13 02:07:20;;;;;;;4.53;1.30;;;;;;;10.72;63.67;97329.06;5038007;28;20934;-72
2024/03/13 02:09:48;;;;;;;2.13;1.20;;;;;;;10.70;63.69;97335.44;5027584;28;20456;-71
2024/03/13 02:12:14;;;;;;;5.63;1.20;;;;;;;10.72;63.53;97333.47;5030395;28;20426;-69
2024/03/13 02:14:39;;;;;;;1.30;1.03;;;;;;;10.67;63.53;97330.50;5029320;28;20504;-71
2024/03/13 02:17:06;;;;;;;2.50;1.17;;;;;;;10.59;63.67;97331.25;5030392;28;20179;-68
2024/03/13 02:19:36;;;;;;;1.67;1.10;;;;;;;10.52;63.24;97323.16;5031030;28;20576;-71
2024/03/13 02:22:04;;;;;;;1.20;0.97;;;;;;;10.51;63.42;97313.63;5039436;28;20437;-71
2024/03/13 02:24:30;;;;;;;1.93;0.80;;;;;;;10.47;63.54;97317.53;5034953;28;20459;-70
2024/03/13 02:26:55;;;;;;;1.10;1.00;;;;;;;10.35;63.88;97311.66;5033547;28;20508;-70
2024/03/13 02:29:21;;;;;;;1.00;0.90;;;;;;;10.43;63.64;97310.94;5032209;28;20216;-71
2024/03/13 02:31:46;;;;;;;1.10;1.00;;;;;;;10.38;63.66;97300.09;5029806;28;20620;-70
2024/03/13 02:34:13;;;;;;;1.23;1.00;;;;;;;10.46;63.55;97308.00;5037002;28;20187;-70
2024/03/13 02:36:38;;;;;;;2.43;1.03;;;;;;;10.38;63.90;97308.78;5024662;28;20221;-72
2024/03/13 02:39:04;;;;;;;1.47;1.10;;;;;;;10.45;64.07;97303.78;5028499;28;21281;-71
2024/03/13 02:41:31;;;;;;;1.43;1.20;;;;;;;10.47;64.02;97309.66;5028861;28;20191;-71
2024/03/13 02:43:58;;;;;;;1.33;1.10;;;;;;;10.45;63.94;97301.16;5034630;28;20238;-71
2024/03/13 02:46:25;;;;;;;1.23;1.00;;;;;;;10.49;63.82;97305.09;5028465;28;21051;-70
2024/03/13 02:48:51;;;;;;;1.33;1.10;;;;;;;10.41;63.84;97294.56;5029276;28;20439;-70
2024/03/13 02:51:16;;;;;;;1.57;1.30;;;;;;;10.40;63.81;97300.75;5029092;28;20962;-69
2024/03/13 02:53:42;;;;;;;1.53;1.10;;;;;;;10.32;64.26;97301.47;5032764;28;20409;-71
2024/03/13 02:56:08;;;;;;;1.40;1.30;;;;;;;10.20;64.63;97298.25;5029641;28;20203;-69
2024/03/13 02:58:35;;;;;;;3.63;1.20;;;;;;;10.22;64.26;97296.28;5029680;28;20195;-70
2024/03/13 03:01:01;;;;;;;1.73;1.40;;;;;;;10.23;63.96;97300.56;5029388;28;20978;-71
2024/03/13 03:03:28;;;;;;;1.10;1.00;;;;;;;10.06;64.72;97293.50;5034928;28;20596;-68
2024/03/13 03:05:53;;;;;;;1.00;0.90;;;;;;;10.12;64.62;97293.75;5035932;28;20425;-71
2024/03/13 03:08:19;;;;;;;3.13;1.13;;;;;;;10.11;64.64;97296.50;5028501;28;21052;-69
2024/03/13 03:10:45;;;;;;;1.10;0.90;;;;;;;10.19;64.72;97295.75;5031116;28;20183;-70
2024/03/13 03:13:11;;;;;;;2.07;1.20;;;;;;;10.25;64.50;97300.44;5014162;28;20184;-68
2024/03/13 03:15:38;;;;;;;1.20;1.10;;;;;;;10.25;64.18;97301.22;5032049;28;20441;-70
2024/03/13 03:18:04;;;;;;;1.37;1.27;;;;;;;10.31;64.46;97305.06;5036026;28;20183;-71
2024/03/13 03:20:29;;;;;;;1.10;1.00;;;;;;;10.37;64.22;97308.88;5033350;28;21027;-70
2024/03/13 03:22:55;;;;;;;1.53;1.20;;;;;;;10.42;64.34;97309.31;5020927;28;20196;-71
2024/03/13 03:25:21;;;;;;;1.10;1.00;;;;;;;10.47;64.28;97308.84;5021714;28;20622;-71
2024/03/13 03:27:46;;;;;;;1.20;1.10;;;;;;;10.49;64.16;97305.09;5032100;28;20215;-69
2024/03/13 03:30:11;;;;;;;3.03;1.43;;;;;;;10.56;64.06;97305.31;5027007;28;20474;-69
2024/03/13 03:32:37;;;;;;;1.20;1.10;;;;;;;10.50;63.63;97309.38;5024150;28;20175;-70
2024/03/13 03:35:04;;;;;;;1.97;1.10;;;;;;;10.46;63.76;97313.25;5035740;28;20187;-69
2024/03/13 03:37:31;;;;;;;1.40;1.30;;;;;;;10.39;63.93;97313.06;5036923;28;20426;-70
2024/03/13 03:39:56;;;;;;;1.17;1.07;;;;;;;10.40;63.95;97311.25;5026908;28;20446;-70
2024/03/13 03:42:24;;;;;;;1.63;1.40;;;;;;;10.45;63.96;97322.13;5044511;28;20460;-70
2024/03/13 03:44:49;;;;;;;1.50;1.37;;;;;;;10.41;63.96;97315.50;5035848;28;20183;-71
2024/03/13 03:47:15;;;;;;;1.40;1.30;;;;;;;10.37;64.19;97317.56;5049498;28;20425;-69
2024/03/13 03:49:41;;;;;;;3.67;1.30;;;;;;;10.36;64.17;97322.94;5036240;28;20777;-72
2024/03/13 03:52:07;;;;;;;1.80;1.40;;;;;;;10.41;63.93;97320.75;5032819;28;20191;-69
2024/03/13 03:54:34;;;;;;;1.80;1.30;;;;;;;10.35;64.10;97318.69;5038670;28;20251;-71
2024/03/13 03:57:00;;;;;;;1.40;1.30;;;;;;;10.36;64.37;97321.16;5032802;28;20416;-70
2024/03/13 03:59:25;;;;;;;3.00;1.60;;;;;;;10.42;64.09;97317.16;5034022;28;20477;-69
2024/03/13 04:01:51;;;;;;;2.90;1.20;;;;;;;10.51;64.39;97324.13;5027959;28;20839;-70
2024/03/13 04:04:16;;;;;;;2.33;1.30;;;;;;;10.54;63.80;97315.13;5031570;28;20306;-69
2024/03/13 04:06:43;;;;;;;1.30;1.20;;;;;;;10.58;63.80;97308.63;5044501;28;20270;-70
2024/03/13 04:09:14;;;;;;;1.70;1.30;;;;;;;10.53;63.98;97318.72;5034061;28;20258;-70
2024/03/13 04:11:43;;;;;;;1.60;1.50;;;;;;;10.53;64.04;97314.31;5039936;28;20514;-69
2024/03/13 04:14:10;;;;;;;1.40;1.30;;;;;;;10.53;64.03;97314.31;5033218;28;20525;-71
2024/03/13 04:16:37;;;;;;;1.67;1.57;;;;;;;10.46;63.71;97326.34;5039333;28;20425;-70
2024/03/13 04:19:02;;;;;;;6.40;1.27;;;;;;;10.49;63.55;97323.44;5033472;28;20461;-70
2024/03/13 04:21:28;;;;;;;1.50;1.40;;;;;;;10.40;63.71;97316.47;5025729;28;20426;-70
2024/03/13 04:23:54;;;;;;;5.47;1.77;;;;;;;10.35;64.39;97313.44;5032834;28;20210;-69
2024/03/13 04:26:20;;;;;;;2.10;2.00;;;;;;;10.32;64.17;97316.38;5029333;28;20214;-72
2024/03/13 04:28:46;;;;;;;1.80;1.70;;;;;;;10.28;64.52;97313.19;5035484;28;20461;-68
2024/03/13 04:31:13;;;;;;;2.33;1.70;;;;;;;10.23;63.89;97315.47;5026962;28;20656;-70
2024/03/13 04:33:40;;;;;;;3.77;2.20;;;;;;;10.23;64.12;97313.66;5030207;28;20198;-69
2024/03/13 04:36:06;;;;;;;2.27;2.07;;;;;;;10.16;64.14;97317.84;5030810;28;20492;-73
2024/03/13 04:38:31;;;;;;;2.40;2.20;;;;;;;10.23;64.71;97318.09;5029613;28;20439;-70
2024/03/13 04:40:57;;;;;;;2.33;2.23;;;;;;;10.15;64.84;97317.00;5036304;28;20308;-73
2024/03/13 04:43:22;;;;;;;2.57;2.37;;;;;;;10.13;64.75;97315.50;5032747;28;20637;-70
2024/03/13 04:45:48;;;;;;;2.70;2.50;;;;;;;10.12;64.81;97319.94;5033188;28;20290;-68
2024/03/13 04:48:13;;;;;;;3.97;2.60;;;;;;;10.20;65.01;97324.44;5032305;28;20187;-68
2024/03/13 04:50:39;;;;;;;2.90;2.60;;;;;;;10.26;64.84;97331.69;5031724;28;20196;-69
2024/03/13 04:53:04;;;;;;;3.13;2.83;;;;;;;10.22;64.86;97329.53;5030437;28;20215;-71
2024/03/13 04:55:30;;;;;;;3.00;2.80;;;;;;;10.26;65.09;97328.28;5030051;28;20175;-71
2024/03/13 04:57:56;;;;;;;6.40;2.37;;;;;;;10.32;65.08;97335.53;5035392;28;20246;-70
2024/03/13 05:00:22;;;;;;;2.90;2.70;;;;;;;10.38;65.13;97336.75;5029467;28;20294;-69
2024/03/13 05:02:48;;;;;;;3.37;3.07;;;;;;;10.38;64.96;97339.38;5030553;28;20550;-70
2024/03/13 05:05:14;;;;;;;3.00;2.80;;;;;;;10.38;64.92;97337.59;5030063;28;20213;-69
2024/03/13 05:07:41;;;;;;;3.30;3.00;;;;;;;10.39;64.65;97339.25;5029953;28;20188;-69
2024/03/13 05:10:07;;;;;;;3.07;2.87;;;;;;;10.44;64.82;97346.66;5030432;28;20203;-71
2024/03/13 05:12:36;;;;;;;3.60;2.57;;;;;;;10.38;64.80;97337.59;5033399;28;20484;-70
2024/03/13 05:15:06;;;;;;;3.63;3.20;;;;;;;10.46;64.43;97344.69;5031063;28;20438;-71
2024/03/13 05:17:34;;;;;;;2.90;2.70;;;;;;;10.40;64.63;97347.91;5030319;28;20430;-69
2024/03/13 05:20:06;;;;;;;3.27;2.93;;;;;;;10.46;64.69;97352.56;5029714;28;20577;-69
2024/03/13 05:22:32;;;;;;;3.13;2.83;;;;;;;10.45;64.92;97348.31;5030310;28;20461;-69
2024/03/13 05:25:01;;;;;;;4.20;3.23;;;;;;;10.50;64.51;97356.53;5029621;28;20437;-70
2024/03/13 05:27:26;;;;;;;4.90;2.97;;;;;;;10.38;64.72;97353.31;5029347;28;20419;-69
2024/03/13 05:29:52;;;;;;;6.90;3.40;;;;;;;10.39;65.02;97354.13;5030844;28;20985;-70
2024/03/13 05:32:17;;;;;;;7.03;3.70;;;;;;;10.47;64.95;97362.06;5025194;28;20286;-66
2024/03/13 05:34:43;;;;;;;14.73;7.70;;;;;;;10.50;65.10;97355.72;5029562;28;20196;-72
2024/03/13 05:37:08;;;;;;;4.43;4.00;;;;;;;10.45;65.08;97356.19;5029151;28;20180;-70
2024/03/13 05:39:34;;;;;;;4.13;3.73;;;;;;;10.37;65.22;97361.28;5028795;28;20230;-69
2024/03/13 05:42:00;;;;;;;3.50;3.20;;;;;;;10.45;65.15;97366.66;5029571;28;20602;-69
2024/03/13 05:44:27;;;;;;;3.57;3.30;;;;;;;10.47;65.47;97363.88;5028085;28;20219;-69
2024/03/13 05:46:53;;;;;;;4.57;3.87;;;;;;;10.39;65.34;97354.97;5028946;28;20179;-69
2024/03/13 05:49:18;;;;;;;4.20;3.90;;;;;;;10.44;65.33;97365.81;5032968;28;20499;-69
2024/03/13 05:51:44;;;;;;;3.50;3.30;;;;;;;10.41;65.41;97353.00;5031283;28;20427;-71
2024/03/13 05:54:09;;;;;;;4.23;3.50;;;;;;;10.39;65.39;97367.22;5020791;28;20184;-70
2024/03/13 05:56:37;;;;;;;4.73;4.33;;;;;;;10.37;65.81;97364.75;5028442;28;20191;-70
2024/03/13 05:59:03;;;;;;;4.53;4.13;;;;;;;10.45;65.48;97370.09;5041602;28;20207;-69
2024/03/13 06:01:28;;;;;;;3.70;3.40;;;;;;;10.46;65.01;97365.66;5037154;28;20499;-71
2024/03/13 06:03:56;;;;;;;3.77;3.47;;;;;;;10.48;65.30;97376.81;5036951;28;20824;-71
2024/03/13 06:06:22;;;;;;;4.03;3.63;;;;;;;10.53;65.09;97382.47;5037705;28;20223;-70
2024/03/13 06:08:47;;;;;;;5.23;3.90;;;;;;;10.53;65.13;97379.84;5034285;28;20494;-68
2024/03/13 06:11:14;;;;;;;5.40;4.30;;;;;;;10.57;65.12;97383.81;5028844;28;20294;-71
2024/03/13 06:13:40;;;;;;;4.67;3.93;;;;;;;10.57;65.27;97382.97;5034305;28;20183;-69
2024/03/13 06:16:11;;;;;;;4.30;3.90;;;;;;;10.57;65.05;97388.22;5031848;28;20423;-71
2024/03/13 06:18:37;;;;;;;4.77;4.37;;;;;;;10.49;65.15;97381.09;5035911;28;20187;-70
2024/03/13 06:21:04;;;;;;;5.67;5.07;;;;;;;10.44;65.14;97383.34;5029398;28;20481;-69
2024/03/13 06:23:30;;;;;;;5.87;5.37;;;;;;;10.42;65.77;97390.53;5028080;28;20214;-70
2024/03/13 06:25:57;;;;;;;6.40;5.80;;;;;;;10.50;65.78;97397.66;5040607;28;20849;-68
2024/03/13 06:31:07;;;;;;;5.37;4.87;;;;;;;10.57;65.55;97399.53;5022380;28;20518;-72
2024/03/13 06:33:33;;;;;;;6.13;5.63;;;;;;;10.56;65.40;97391.81;5028086;28;20501;-70
2024/03/13 06:35:58;;;;;;;5.57;5.07;;;;;;;10.53;65.39;97397.34;5028498;28;20550;-70
2024/03/13 06:38:24;;;;;;;6.10;5.50;;;;;;;10.61;65.49;97405.31;5028993;28;20550;-71
2024/03/13 06:40:50;;;;;;;6.43;5.50;;;;;;;10.60;65.38;97399.22;5028610;28;20266;-71
2024/03/13 06:43:16;;;;;;;6.70;6.10;;;;;;;10.58;65.66;97401.19;5034643;28;20223;-68
2024/03/13 06:45:47;;;;;;;7.30;6.50;;;;;;;10.68;65.47;97406.34;5031608;28;20410;-70
2024/03/13 06:48:13;;;;;;;7.20;6.50;;;;;;;10.64;65.10;97398.94;5028532;28;20192;-68
2024/03/13 06:50:38;;;;;;;8.20;6.60;;;;;;;10.61;65.12;97400.06;5029515;28;20446;-70
2024/03/13 06:53:04;;;;;;;8.60;6.23;;;;;;;10.58;65.65;97401.19;5030745;28;20183;-70
2024/03/13 06:55:30;;;;;;;8.00;6.47;;;;;;;10.60;65.52;97409.72;5036340;28;20183;-70
2024/03/13 06:57:55;;;;;;;14.80;7.17;;;;;;;10.40;65.67;97411.63;5039637;28;20550;-71
2024/03/13 07:00:21;;;;;;;17.23;7.57;;;;;;;10.44;65.92;97420.03;5026922;28;20648;-70
2024/03/13 07:02:47;;;;;;;8.03;6.50;;;;;;;10.47;65.72;97416.28;5027614;28;20612;-70
2024/03/13 07:05:14;;;;;;;8.33;6.47;;;;;;;10.56;65.67;97420.63;5033714;28;20422;-70
2024/03/13 07:07:42;;;;;;;11.53;6.40;;;;;;;10.56;65.91;97421.47;5041153;28;20442;-69
2024/03/13 07:10:10;;;;;;;8.20;6.87;;;;;;;10.59;65.88;97418.53;5032244;28;20438;-70
2024/03/13 07:12:37;;;;;;;6.43;5.83;;;;;;;10.70;65.60;97419.34;5035892;28;20963;-69
2024/03/13 07:15:05;;;;;;;10.77;6.60;;;;;;;10.75;65.77;97417.06;5043420;28;20440;-69
2024/03/13 07:17:31;;;;;;;7.80;7.00;;;;;;;10.76;65.95;97418.72;5035839;28;20423;-70
2024/03/13 07:19:56;;;;;;;6.90;6.20;;;;;;;10.58;65.82;97416.91;5013461;28;20481;-71
2024/03/13 07:22:22;;;;;;;6.80;6.20;;;;;;;10.67;65.76;97419.63;5031656;28;20184;-71
2024/03/13 07:24:47;;;;;;;8.00;6.97;;;;;;;10.71;65.91;97427.03;5031463;28;20188;-70
2024/03/13 07:27:12;;;;;;;8.93;6.97;;;;;;;10.73;65.93;97426.88;5032741;28;20810;-69
2024/03/13 07:29:38;;;;;;;9.67;7.23;;;;;;;10.81;66.09;97432.22;5034709;28;20277;-71
2024/03/13 07:32:04;;;;;;;8.13;6.80;;;;;;;10.79;66.21;97428.91;5031203;28;20190;-70
2024/03/13 07:34:29;;;;;;;7.20;6.60;;;;;;;10.86;66.26;97423.91;5031714;28;20274;-68
2024/03/13 07:36:54;;;;;;;8.50;6.67;;;;;;;10.87;66.36;97430.81;5056544;28;20180;-71
2024/03/13 07:39:21;;;;;;;7.70;6.93;;;;;;;10.95;66.35;97427.44;5037498;28;20207;-70
2024/03/13 07:41:46;;;;;;;8.23;7.27;;;;;;;10.98;66.13;97430.59;5033538;28;20188;-70
2024/03/13 07:44:11;;;;;;;7.27;6.57;;;;;;;11.06;66.04;97432.47;5032023;28;20988;-69
2024/03/13 07:46:37;;;;;;;8.90;7.60;;;;;;;11.11;65.99;97438.06;5031348;28;20854;-70
2024/03/13 07:49:02;;;;;;;12.60;7.67;;;;;;;11.12;66.46;97437.09;5030829;28;20302;-68
2024/03/13 07:51:28;;;;;;;11.10;6.83;;;;;;;11.14;66.43;97434.34;5042667;28;20187;-71
2024/03/13 07:53:53;;;;;;;10.20;7.50;;;;;;;11.17;66.53;97440.09;5043265;28;20263;-70
2024/03/13 07:56:20;;;;;;;13.47;8.00;;;;;;;11.21;66.44;97436.19;5037584;28;20299;-69
2024/03/13 07:58:45;;;;;;;7.20;6.17;;;;;;;11.30;66.44;97444.97;5025019;28;20679;-69
2024/03/13 08:01:11;;;;;;;7.40;6.10;;;;;;;11.26;66.57;97443.63;5029958;28;20484;-71
2024/03/13 08:03:36;;;;;;;12.70;7.13;;;;;;;11.27;66.68;97454.94;5041832;28;20305;-70
2024/03/13 08:06:02;;;;;;;7.70;6.97;;;;;;;11.28;66.77;97446.91;5030932;28;20179;-70
2024/03/13 08:08:27;;;;;;;8.30;6.27;;;;;;;11.34;66.66;97453.38;5028845;28;20188;-71
2024/03/13 08:10:52;;;;;;;7.60;6.57;;;;;;;11.42;66.90;97452.59;5038038;28;20755;-70
2024/03/13 08:13:18;;;;;;;7.67;6.57;;;;;;;11.47;66.77;97453.78;5031268;28;20604;-69
2024/03/13 08:15:43;;;;;;;5.83;5.30;;;;;;;11.48;66.81;97450.19;5030616;28;20191;-71
2024/03/13 08:18:14;;;;;;;12.13;6.50;;;;;;;11.55;66.74;97457.47;5031177;28;20188;-71
2024/03/13 08:20:40;;;;;;;7.63;5.50;;;;;;;11.61;66.83;97462.09;5041266;28;20202;-71
2024/03/13 08:23:08;;;;;;;5.80;5.27;;;;;;;11.59;67.00;97456.19;5031327;28;20476;-71
2024/03/13 08:25:34;;;;;;;10.53;5.20;;;;;;;11.62;67.29;97461.13;5030954;28;20958;-69
2024/03/13 08:27:59;;;;;;;6.90;4.83;;;;;;;11.72;67.02;97466.28;5030622;28;20418;-68
2024/03/13 08:30:26;;;;;;;10.47;5.20;;;;;;;11.79;67.26;97462.91;5024897;28;20235;-70
2024/03/13 08:32:53;;;;;;;4.17;3.83;;;;;;;11.76;67.38;97468.44;5026587;28;20179;-69
2024/03/13 08:35:18;;;;;;;7.40;3.30;;;;;;;11.75;67.42;97471.25;5031732;28;20841;-69
2024/03/13 08:37:44;;;;;;;3.67;3.37;;;;;;;11.83;67.54;97476.53;5036294;28;20435;-70
2024/03/13 08:40:11;;;;;;;4.40;4.00;;;;;;;11.94;67.75;97471.03;5032721;28;20213;-71
2024/03/13 08:42:40;;;;;;;4.23;3.47;;;;;;;12.04;67.61;97476.22;5035152;28;20198;-71
2024/03/13 08:45:10;;;;;;;3.13;2.93;;;;;;;12.06;67.62;97481.31;5032550;28;20457;-71
2024/03/13 08:47:38;;;;;;;3.77;3.07;;;;;;;12.11;67.56;97481.69;5037552;28;20414;-71
2024/03/13 08:50:04;;;;;;;3.37;3.17;;;;;;;12.17;67.64;97481.03;5040014;28;20441;-70
2024/03/13 08:52:30;;;;;;;6.40;2.70;;;;;;;12.24;67.99;97481.25;5030414;28;20423;-70
2024/03/13 08:54:56;;;;;;;3.10;2.63;;;;;;;12.34;67.90;97481.97;5036766;28;20434;-70
2024/03/13 08:57:22;;;;;;;2.70;2.50;;;;;;;12.37;67.96;97486.91;5030982;28;20422;-69
2024/03/13 08:59:47;;;;;;;2.77;2.57;;;;;;;12.44;67.67;97485.31;5037571;28;20677;-70
2024/03/13 09:02:13;;;;;;;3.20;2.50;;;;;;;12.46;67.69;97490.41;5042453;28;20325;-71
2024/03/13 09:04:38;;;;;;;2.60;2.17;;;;;;;12.49;67.94;97484.00;5038703;28;20214;-71
2024/03/13 09:07:04;;;;;;;3.60;2.23;;;;;;;12.54;67.62;97498.31;5039883;28;20187;-70
2024/03/13 09:09:29;;;;;;;3.67;2.10;;;;;;;12.60;68.23;97496.88;5013181;28;20298;-71
2024/03/13 09:11:55;;;;;;;11.53;2.60;;;;;;;12.64;68.13;97503.47;5037794;28;20179;-70
2024/03/13 09:14:23;;;;;;;8.27;2.67;;;;;;;12.69;68.44;97505.59;5039394;28;20192;-70
2024/03/13 09:16:50;;;;;;;3.83;2.30;;;;;;;12.72;68.18;97511.41;5029088;28;20648;-71
2024/03/13 09:19:15;;;;;;;4.37;2.30;;;;;;;12.76;68.59;97506.63;5029932;28;20454;-70
2024/03/13 09:21:46;;;;;;;2.20;2.00;;;;;;;12.80;68.47;97507.13;5036081;28;20476;-71
2024/03/13 09:24:11;;;;;;;2.50;1.80;;;;;;;12.86;68.63;97506.47;5034088;28;20242;-70
2024/03/13 09:26:38;;;;;;;2.73;1.97;;;;;;;12.90;68.74;97513.09;5029673;28;20760;-71
2024/03/13 09:29:04;;;;;;;4.23;1.50;;;;;;;12.95;68.54;97505.53;5037648;28;20310;-71
2024/03/13 09:31:30;;;;;;;2.37;2.00;;;;;;;12.98;68.58;97502.56;5026848;28;20859;-71
2024/03/13 09:33:55;;;;;;;2.00;1.37;;;;;;;13.03;68.72;97508.19;5034319;28;20194;-69
2024/03/13 09:36:21;;;;;;;1.57;1.40;;;;;;;13.11;68.66;97511.81;5029777;28;20222;-70
2024/03/13 09:38:46;;;;;;;3.43;1.63;;;;;;;13.18;68.45;97508.38;5029594;28;20693;-70
2024/03/13 09:41:14;;;;;;;1.33;0.90;;;;;;;13.23;68.69;97500.03;5030317;28;20607;-70
2024/03/13 09:43:40;;;;;;;1.47;1.20;;;;;;;13.28;68.71;97505.63;5033873;28;20291;-71
2024/03/13 09:46:09;;;;;;;2.63;0.80;;;;;;;13.28;68.48;97508.25;5029255;28;20438;-69
2024/03/13 09:48:39;;;;;;;1.10;0.90;;;;;;;13.28;68.15;97510.88;5028113;28;20195;-69
2024/03/13 09:51:05;;;;;;;3.10;1.00;;;;;;;13.25;68.04;97513.81;5028425;28;20420;-72
2024/03/13 09:53:32;;;;;;;1.37;0.90;;;;;;;13.32;68.12;97509.56;5029030;28;20509;-69
2024/03/13 09:55:58;;;;;;;1.53;1.00;;;;;;;13.29;67.89;97502.00;4993397;28;20435;-71
2024/03/13 09:58:25;;;;;;;1.20;0.87;;;;;;;13.34;68.15;97512.03;5033768;28;20761;-70
2024/03/13 10:00:53;;;;;;;1.20;1.10;;;;;;;13.43;67.85;97512.91;5029262;28;20207;-69
2024/03/13 10:03:27;;;;;;;1.50;1.20;;;;;;;13.50;67.90;97513.88;5033256;28;20455;-70
2024/03/13 10:06:00;;;;;;;2.20;1.10;;;;;;;13.50;67.57;97512.09;5036028;28;20426;-70
2024/03/13 10:08:26;;;;;;;2.43;0.90;;;;;;;13.59;67.76;97514.72;5041925;28;20520;-71
2024/03/13 10:10:51;;;;;;;1.20;0.90;;;;;;;13.70;67.55;97524.13;5038504;28;20441;-69
2024/03/13 10:13:17;;;;;;;1.73;0.90;;;;;;;13.73;67.26;97526.44;5030430;28;20433;-69
2024/03/13 10:15:43;;;;;;;2.50;1.10;;;;;;;13.82;67.61;97517.53;5033999;28;20659;-69
2024/03/13 10:18:19;;;;;;;1.20;1.10;;;;;;;13.87;67.27;97515.22;5044405;28;20441;-72
2024/03/13 10:20:50;;;;;;;2.83;1.47;;;;;;;13.92;67.06;97518.19;5054473;28;20528;-71
2024/03/13 10:23:17;;;;;;;2.53;1.40;;;;;;;13.96;66.87;97524.78;5028948;28;20447;-69
2024/03/13 10:25:44;;;;;;;2.73;1.50;;;;;;;14.03;66.64;97529.38;5030047;28;20430;-69
2024/03/13 10:28:13;;;;;;;2.17;1.63;;;;;;;14.07;66.63;97528.88;5022134;28;20434;-69
2024/03/13 10:30:39;;;;;;;1.40;1.30;;;;;;;14.11;66.70;97526.75;5018099;28;20532;-71
2024/03/13 10:33:05;;;;;;;1.60;1.50;;;;;;;14.15;66.50;97528.03;5031293;28;20979;-71
2024/03/13 10:35:30;;;;;;;3.00;1.50;;;;;;;14.21;66.63;97529.16;5034258;28;20230;-71
2024/03/13 10:37:56;;;;;;;1.50;1.40;;;;;;;14.23;66.47;97530.69;5031799;28;20654;-69
2024/03/13 10:40:24;;;;;;;1.53;1.43;;;;;;;14.27;66.51;97526.69;5031067;28;20282;-69
2024/03/13 10:42:50;;;;;;;2.80;1.23;;;;;;;14.31;66.19;97526.38;5027277;28;20549;-69
2024/03/13 10:45:15;;;;;;;4.20;1.43;;;;;;;14.28;66.38;97523.06;5036602;28;20509;-70
2024/03/13 10:47:41;;;;;;;2.03;1.40;;;;;;;14.35;66.68;97527.69;5031639;28;20187;-71
2024/03/13 10:50:09;;;;;;;1.53;1.30;;;;;;;14.39;66.22;97518.44;5024801;28;20258;-69
2024/03/13 10:52:37;;;;;;;1.70;1.60;;;;;;;14.39;66.19;97523.69;5028114;28;20202;-69
2024/03/13 10:55:03;;;;;;;1.60;1.50;;;;;;;14.35;66.12;97523.22;5033136;28;20411;-70
2024/03/13 10:57:29;;;;;;;4.60;1.63;;;;;;;14.35;66.16;97532.94;5033077;28;20267;-72
2024/03/13 10:59:54;;;;;;;1.97;1.70;;;;;;;14.41;66.36;97527.00;5036522;28;20196;-70
2024/03/13 11:02:19;;;;;;;2.17;1.23;;;;;;;14.48;66.30;97527.97;5035632;28;20186;-70
2024/03/13 11:04:45;;;;;;;1.60;1.50;;;;;;;14.53;65.85;97528.28;5028290;28;20850;-70
2024/03/13 11:07:18;;;;;;;2.07;1.80;;;;;;;14.57;66.05;97528.75;5032411;28;20735;-70
2024/03/13 11:09:44;;;;;;;2.23;1.67;;;;;;;14.60;66.09;97531.06;5036100;28;20668;-69
2024/03/13 11:12:19;;;;;;;2.27;1.70;;;;;;;14.62;66.16;97530.91;5036050;28;20520;-70
2024/03/13 11:14:50;;;;;;;2.10;2.00;;;;;;;14.64;66.20;97532.38;5027050;28;20198;-69
2024/03/13 11:17:20;;;;;;;2.20;2.00;;;;;;;14.65;65.92;97533.19;5030731;28;20781;-71
2024/03/13 11:19:50;;;;;;;2.27;1.80;;;;;;;14.68;65.89;97538.97;5031182;28;20455;-70
2024/03/13 11:22:16;;;;;;;3.83;1.90;;;;;;;14.69;65.96;97539.81;5034460;28;20430;-71
2024/03/13 11:24:41;;;;;;;1.80;1.70;;;;;;;14.72;65.95;97534.19;5029324;28;20450;-71
2024/03/13 11:27:15;;;;;;;2.60;1.80;;;;;;;14.73;66.14;97535.84;5027594;28;20823;-70
2024/03/13 11:29:44;;;;;;;2.70;2.00;;;;;;;14.77;66.23;97526.56;5023840;28;20322;-71
2024/03/13 11:32:13;;;;;;;1.70;1.60;;;;;;;14.81;66.14;97527.88;5025473;28;20433;-71
2024/03/13 11:34:40;;;;;;;2.90;2.00;;;;;;;14.85;66.37;97523.91;5033373;28;20910;-71
2024/03/13 11:37:09;;;;;;;3.77;2.23;;;;;;;14.90;66.65;97526.84;5036918;28;20919;-71
2024/03/13 11:39:35;;;;;;;1.60;1.50;;;;;;;14.96;66.59;97527.16;5033355;28;20843;-69
2024/03/13 11:42:11;;;;;;;2.37;2.20;;;;;;;15.00;66.70;97525.81;5029910;28;20892;-68
2024/03/13 11:44:39;;;;;;;2.83;2.23;;;;;;;15.03;66.64;97530.75;5035396;28;20821;-70
2024/03/13 11:47:10;;;;;;;2.57;2.20;;;;;;;15.02;66.75;97524.66;5021291;28;20472;-69
2024/03/13 11:49:49;;;;;;;2.70;2.00;;;;;;;15.08;66.74;97527.59;5029383;28;20446;-72
2024/03/13 11:52:18;;;;;;;2.13;1.93;;;;;;;15.11;66.83;97522.81;4995919;28;20506;-71